Tyson, Mississippi
Current Conditions -  °F | °C
As of 4:55 PM on Saturday 25 Oct 2014 (Local Time) from KUOX Reporting Station
Clear Clear  
Wind Chill: 77°   Ceiling: Unl
Heat Index: 79°   Visibility: 10mi
Dew Point: 61°   Wind: 5mph
Humidity: 57%   Direction: 240°WSW
Pressure: 30.06"   Gusts: NA
Location:  33.9467°N, 89.6428°W
Report Text: KUOX 252155Z AUTO 24004KT 10SM CLR 25/16 A3006 RMK AO2 PWINO PNO
Loading
Personal Weather Stations






























Interactive Weather Map
Tropical Storm Tracking
New forecast layout! Learn more

10-Day Weather Forecast

Advertisements
Track Severe Weather on mobile